Willkommen auf der Webseite des Flugplatzes Uetersen/Heist PDF Drucken E-Mail

 

Liebe Fliegerfreunde, liebe Gäste und Kunden des Flugplatzes Uetersen,

 

Herr Szaguhn steht mit seinem Tower-Restaurant wieder täglich außer Montags für Sie bereit.

 

 

 

 

Zufallsbild

Aktuelle Termine

Mo Di Mi Do Fr Sa So
1 2 3 4 5 6 7
8 9 10 11 12 13 14
15 16 17 18 19 20 21
22 23 24 25 26 27 28
29 30 31 1 2 3 4

Pilotenwetter

[source: ADDS]
METAR
EDDH 251620Z 14011KT CAVOK 31/11 Q1015 NOSIG =
TAF
TAF EDDH 251100Z 2512/2618 16008KT CAVOK BECMG 2609/2611 23007KT BECMG 2615/2617 31010KT =